Denver, Colorado
Traffic Map
Current Weather Conditions
Denver, Colorado
Broken Clouds
Broken Clouds
23°
Feels Like: 23°
Wind Chill: 23° Ceiling: 22000
Heat Index: 23° Visibility: 10mi
Dew Point: Wind: 12mph
Humidity: 34% Direction: 160° (SSE)
Pressure: 30.11in Gusts: 0mph
Raw Report DataKBKF 020158Z 16010KT 10SM FEW080 FEW130 BKN220 23/06 A3011 RMK AO2A SLP122 T02270061
Traffic Incident Summary
Active as of:
Severity:
Category:
InformationThere was an issue retrieving the traffic information for this location. Please try a different location or try again shortly.
Advertisements
Track Severe Weather on mobile